Thunder radar more information blitzortung!


Radar de pluja more information rain snow radar


Visita la nostra xarxa de llocs de meteo:

Template documentation
and downloads

And another site



No particular awareness of the weather is required.    There are no Weather-warnings

Pagina Historial Weather Underground text

Diari Resum Juliol 20, 2017 Unitats:  Imperial    Mètric   Tant
« Previous Dia
SegĂźent Dia »
Diari Setmana Mensual Anual Personalitzada
  Maxima: Minima: Media:
Temperatura: TemperatureC °F 21.5 °F 26.1 °F
Punt de rosada: DewpointC °F 15.1 °F 16.6 °F
Humitat: Humidity % 44 % 56 %
Wind Speed: WindSpeedKMH mph 0.0 mph 8.5 mph
RĂ fegues de vent: WindSpeedGustKMH mph - -
Vent:- - ESE
Pression baro: PressurehPa in 1008.0 in -
Precipitacions: 0.0 in    
Historical Graphs
 
 
Dades de taula per Juliol 20, 2017
Temps Temperatura Punt de rosada Pression baro Vent Wind Speed RĂ fegues de vent Humitat Rainfall Rate (Hourly)
TemperatureC °F DewpointC °F PressurehPa in Calm     Humidity % HourlyPrecipMM in
00:00 23.6 °F 19.3 °F 1010.0 in NE 4.8 mph 9.7 mph 77 % 0.0 in
00:05 23.5 °F 19.2 °F 1010.0 in NE 4.8 mph 11.3 mph 77 % 0.0 in
00:15 22.5 °F 17.8 °F 1009.0 in NE 3.2 mph 3.2 mph 75 % 0.0 in
00:25 22.5 °F 17.8 °F 1010.0 in NE 4.8 mph 6.4 mph 75 % 0.0 in
00:35 22.5 °F 18.1 °F 1010.0 in ENE 8.0 mph 9.7 mph 76 % 0.0 in
00:45 22.5 °F 18.1 °F 1010.0 in ENE 4.8 mph 6.4 mph 76 % 0.0 in
00:55 22.5 °F 17.8 °F 1009.0 in NE 4.8 mph 9.7 mph 75 % 0.0 in
01:05 22.5 °F 17.8 °F 1009.0 in NE 4.8 mph 8.0 mph 75 % 0.0 in
01:15 22.5 °F 17.8 °F 1010.0 in NE 4.8 mph 6.4 mph 75 % 0.0 in
01:25 22.5 °F 17.8 °F 1010.0 in East 3.2 mph 6.4 mph 75 % 0.0 in
01:35 22.5 °F 17.8 °F 1010.0 in ENE 3.2 mph 4.8 mph 75 % 0.0 in
01:45 22.4 °F 17.7 °F 1010.0 in NE 3.2 mph 4.8 mph 75 % 0.0 in
01:55 22.5 °F 18.1 °F 1010.0 in NE 3.2 mph 8.0 mph 76 % 0.0 in
02:05 22.5 °F 17.8 °F 1010.0 in NE 4.8 mph 6.4 mph 75 % 0.0 in
02:15 21.9 °F 17.1 °F 1010.0 in NNE 4.8 mph 4.8 mph 74 % 0.0 in
02:25 21.8 °F 16.7 °F 1010.0 in Calm   6.4 mph 73 % 0.0 in
02:35 22.0 °F 16.5 °F 1010.0 in NNE 3.2 mph 3.2 mph 71 % 0.0 in
02:45 21.9 °F 16.6 °F 1010.0 in NE 4.8 mph 4.8 mph 72 % 0.0 in
02:55 22.2 °F 16.7 °F 1010.0 in NE 3.2 mph 6.4 mph 71 % 0.0 in
03:05 22.7 °F 16.9 °F 1010.0 in NE 4.8 mph 6.4 mph 70 % 0.0 in
03:15 22.8 °F 16.8 °F 1010.7 in NNE 4.8 mph 8.0 mph 69 % 0.0 in
03:25 23.5 °F 17.5 °F 1010.0 in NE 1.6 mph 4.8 mph 69 % 0.0 in
03:35 23.7 °F 17.4 °F 1010.0 in NE 3.2 mph 4.8 mph 68 % 0.0 in
03:45 24.1 °F 17.3 °F 1010.7 in NNE 1.6 mph 3.2 mph 66 % 0.0 in
03:55 24.1 °F 17.1 °F 1010.7 in NE 3.2 mph 4.8 mph 65 % 0.0 in
04:05 24.6 °F 17.6 °F 1010.7 in ENE 3.2 mph 3.2 mph 65 % 0.0 in
04:15 25.6 °F 18.1 °F 1010.7 in SE 1.6 mph 4.8 mph 63 % 0.0 in
04:25 25.9 °F 18.1 °F 1011.7 in ESE 3.2 mph 4.8 mph 62 % 0.0 in
04:35 25.8 °F 17.9 °F 1011.7 in South 4.8 mph 4.8 mph 62 % 0.0 in
04:45 26.1 °F 18.0 °F 1010.7 in SSW 3.2 mph 4.8 mph 61 % 0.0 in
04:55 26.2 °F 17.8 °F 1011.7 in South 1.6 mph 4.8 mph 60 % 0.0 in
05:05 26.6 °F 18.2 °F 1011.7 in SE 4.8 mph 6.4 mph 60 % 0.0 in
05:15 26.5 °F 17.6 °F 1010.7 in ESE 4.8 mph 8.0 mph 58 % 0.0 in
05:25 27.1 °F 17.8 °F 1011.7 in ESE 4.8 mph 9.7 mph 57 % 0.0 in
05:35 27.0 °F 17.2 °F 1011.7 in East 3.2 mph 6.4 mph 55 % 0.0 in
05:40 27.1 °F 17.3 °F 1010.7 in East 1.6 mph 6.4 mph 55 % 0.0 in
10:40 27.1 °F 17.0 °F 1010.7 in ESE 3.5 mph 5.3 mph 54 % 0.0 in
10:45 27.4 °F 17.0 °F 1010.7 in SSE 3.7 mph 4.2 mph 53 % 0.0 in
10:50 28.0 °F 17.8 °F 1010.7 in ENE 3.7 mph 3.7 mph 54 % 0.0 in
10:56 27.7 °F 16.9 °F 1010.7 in West 9.3 mph 9.3 mph 52 % 0.0 in
11:01 27.7 °F 17.3 °F 1010.7 in NE 7.4 mph 7.4 mph 53 % 0.0 in
11:06 28.0 °F 17.5 °F 1010.7 in SE 4.2 mph 4.2 mph 53 % 0.0 in
11:11 28.0 °F 17.5 °F 1010.7 in NNE 6.1 mph 6.1 mph 53 % 0.0 in
11:16 28.3 °F 17.5 °F 1010.7 in East 5.6 mph 5.6 mph 52 % 0.0 in
11:21 28.3 °F 17.5 °F 1010.7 in ESE 12.6 mph 12.6 mph 52 % 0.0 in
11:27 27.6 °F 16.8 °F 1010.7 in East 11.1 mph 11.1 mph 52 % 0.0 in
11:32 27.8 °F 16.7 °F 1010.7 in SE 13.0 mph 13.0 mph 51 % 0.0 in
11:37 27.7 °F 16.9 °F 1010.7 in NNE 7.4 mph 7.4 mph 52 % 0.0 in
11:42 28.1 °F 17.0 °F 1010.7 in SE 7.4 mph 7.4 mph 51 % 0.0 in
11:47 28.2 °F 17.1 °F 1010.7 in SSE 9.3 mph 9.3 mph 51 % 0.0 in
11:52 28.0 °F 16.9 °F 1010.0 in ENE 5.6 mph 5.6 mph 51 % 0.0 in
11:57 28.2 °F 17.4 °F 1010.0 in ENE 5.6 mph 5.6 mph 52 % 0.0 in
12:02 28.7 °F 17.6 °F 1010.0 in WSW 5.6 mph 5.6 mph 51 % 0.0 in
12:07 29.0 °F 17.5 °F 1010.0 in ESE 5.6 mph 5.6 mph 50 % 0.0 in
12:12 28.9 °F 17.7 °F 1010.0 in NNE 5.6 mph 5.6 mph 51 % 0.0 in
12:17 29.2 °F 17.4 °F 1010.0 in ESE 12.6 mph 12.6 mph 49 % 0.0 in
12:22 28.4 °F 17.3 °F 1010.0 in East 9.3 mph 9.3 mph 51 % 0.0 in
12:27 28.6 °F 17.4 °F 1010.0 in ESE 16.1 mph 16.1 mph 51 % 0.0 in
12:33 29.3 °F 17.8 °F 1010.0 in ESE 7.4 mph 7.4 mph 50 % 0.0 in
12:38 28.8 °F 17.7 °F 1010.0 in East 5.6 mph 7.6 mph 51 % 0.0 in
12:43 28.7 °F 17.6 °F 1010.0 in ESE 9.3 mph 9.3 mph 51 % 0.0 in
12:48 29.1 °F 17.6 °F 1010.0 in South 9.3 mph 9.3 mph 50 % 0.0 in
12:53 29.2 °F 18.0 °F 1010.0 in South 13.0 mph 13.0 mph 51 % 0.0 in
12:58 28.8 °F 17.7 °F 1010.0 in ESE 14.8 mph 14.8 mph 51 % 0.0 in
13:04 28.4 °F 17.3 °F 1010.0 in ESE 13.0 mph 13.0 mph 51 % 0.0 in
13:09 28.8 °F 17.7 °F 1010.0 in ESE 13.7 mph 13.7 mph 51 % 0.0 in
13:14 29.0 °F 17.5 °F 1010.0 in ESE 7.4 mph 7.4 mph 50 % 0.0 in
13:19 28.4 °F 17.3 °F 1010.0 in South 14.8 mph 14.8 mph 51 % 0.0 in
13:24 28.9 °F 17.7 °F 1010.0 in ESE 14.0 mph 14.0 mph 51 % 0.0 in
13:29 28.2 °F 17.1 °F 1010.0 in SE 14.8 mph 14.8 mph 51 % 0.0 in
13:34 28.1 °F 17.3 °F 1010.0 in North 9.3 mph 9.3 mph 52 % 0.0 in
13:40 28.5 °F 17.7 °F 1010.0 in SSE 5.6 mph 5.6 mph 52 % 0.0 in
13:45 28.5 °F 17.7 °F 1010.0 in ESE 14.8 mph 14.8 mph 52 % 0.0 in
13:50 28.4 °F 17.6 °F 1010.0 in ESE 13.0 mph 13.0 mph 52 % 0.0 in
13:55 28.8 °F 17.9 °F 1010.0 in ESE 13.0 mph 13.0 mph 52 % 0.0 in
14:00 29.4 °F 17.9 °F 1010.0 in ESE 9.3 mph 9.3 mph 50 % 0.0 in
14:05 29.6 °F 18.1 °F 1010.0 in East 14.0 mph 14.0 mph 50 % 0.0 in
14:10 29.1 °F 17.6 °F 1010.0 in ESE 11.1 mph 11.1 mph 50 % 0.0 in
14:15 29.4 °F 17.9 °F 1010.0 in SE 7.4 mph 7.4 mph 50 % 0.0 in
14:20 29.4 °F 17.9 °F 1010.0 in ESE 20.4 mph 20.4 mph 50 % 0.0 in
14:25 29.3 °F 17.8 °F 1010.0 in East 9.7 mph 16.1 mph 50 % 0.0 in
14:30 29.1 °F 17.9 °F 1010.0 in East 8.0 mph 20.9 mph 51 % 0.0 in
14:35 29.1 °F 17.6 °F 1010.0 in ESE 12.9 mph 20.9 mph 50 % 0.0 in
14:40 28.7 °F 17.9 °F 1010.0 in SE 18.5 mph 18.5 mph 52 % 0.0 in
14:46 29.0 °F 17.8 °F 1010.0 in ESE 16.7 mph 16.7 mph 51 % 0.0 in
14:51 29.1 °F 17.9 °F 1010.0 in East 13.0 mph 13.0 mph 51 % 0.0 in
14:56 29.0 °F 17.8 °F 1010.0 in ENE 13.0 mph 13.0 mph 51 % 0.0 in
15:02 29.0 °F 17.8 °F 1010.0 in SSW 9.3 mph 9.3 mph 51 % 0.0 in
15:07 29.5 °F 18.0 °F 1009.0 in ENE 7.4 mph 7.4 mph 50 % 0.0 in
15:12 30.0 °F 18.4 °F 1009.0 in ESE 16.9 mph 16.9 mph 50 % 0.0 in
15:17 29.3 °F 17.8 °F 1009.0 in ESE 18.5 mph 18.5 mph 50 % 0.0 in
15:18 29.3 °F 17.8 °F 1009.0 in East 18.5 mph 18.5 mph 50 % 0.0 in
15:23 29.3 °F 17.8 °F 1010.0 in East 18.5 mph 18.5 mph 50 % 0.0 in
15:28 29.1 °F 17.3 °F 1010.0 in East 18.5 mph 18.5 mph 49 % 0.0 in
15:33 28.8 °F 17.7 °F 1010.0 in ESE 20.1 mph 20.1 mph 51 % 0.0 in
15:38 28.8 °F 17.3 °F 1010.0 in SE 11.1 mph 11.1 mph 50 % 0.0 in
15:43 29.1 °F 17.3 °F 1010.0 in ESE 13.0 mph 13.0 mph 49 % 0.0 in
15:48 29.0 °F 17.2 °F 1010.0 in East 17.5 mph 17.5 mph 49 % 0.0 in
15:53 29.1 °F 17.3 °F 1009.0 in East 14.8 mph 14.8 mph 49 % 0.0 in
15:58 29.0 °F 17.2 °F 1009.0 in ESE 20.4 mph 20.4 mph 49 % 0.0 in
16:03 29.2 °F 17.1 °F 1009.0 in ENE 14.8 mph 14.8 mph 48 % 0.0 in
16:09 29.0 °F 17.2 °F 1010.0 in ENE 18.5 mph 18.5 mph 49 % 0.0 in
16:14 29.2 °F 17.1 °F 1010.0 in SE 18.5 mph 18.5 mph 48 % 0.0 in
16:19 28.7 °F 16.9 °F 1010.0 in East 14.8 mph 14.8 mph 49 % 0.0 in
16:24 29.3 °F 17.5 °F 1010.0 in ENE 15.8 mph 15.8 mph 49 % 0.0 in
16:29 29.3 °F 17.2 °F 1010.0 in SE 11.1 mph 11.1 mph 48 % 0.0 in
16:34 29.1 °F 16.9 °F 1010.0 in ENE 11.1 mph 11.1 mph 48 % 0.0 in
16:39 29.0 °F 16.9 °F 1009.0 in ESE 15.8 mph 15.8 mph 48 % 0.0 in
16:40 29.0 °F 16.9 °F 1009.0 in ESE 17.5 mph 17.5 mph 48 % 0.0 in
16:45 29.1 °F 16.9 °F 1009.0 in ESE 11.1 mph 11.1 mph 48 % 0.0 in
16:50 29.0 °F 16.9 °F 1009.0 in East 13.0 mph 13.0 mph 48 % 0.0 in
16:55 28.9 °F 16.8 °F 1009.0 in ENE 16.7 mph 16.7 mph 48 % 0.0 in
17:00 29.3 °F 16.8 °F 1009.0 in East 14.8 mph 14.8 mph 47 % 0.0 in
17:05 29.5 °F 17.0 °F 1009.0 in ENE 14.8 mph 14.8 mph 47 % 0.0 in
17:10 29.2 °F 16.4 °F 1008.0 in ESE 11.1 mph 11.1 mph 46 % 0.0 in
17:15 29.0 °F 16.2 °F 1008.0 in ENE 13.0 mph 13.0 mph 46 % 0.0 in
17:20 29.2 °F 16.4 °F 1008.0 in ENE 13.0 mph 13.0 mph 46 % 0.0 in
17:25 29.4 °F 16.6 °F 1008.0 in East 16.7 mph 16.7 mph 46 % 0.0 in
17:30 29.3 °F 16.1 °F 1008.0 in SSE 18.5 mph 18.5 mph 45 % 0.0 in
17:35 29.1 °F 15.9 °F 1008.0 in NE 16.7 mph 16.7 mph 45 % 0.0 in
17:40 28.9 °F 16.1 °F 1009.0 in ESE 11.1 mph 11.1 mph 46 % 0.0 in
17:45 28.8 °F 15.7 °F 1009.0 in South 16.7 mph 16.7 mph 45 % 0.0 in
17:51 29.1 °F 15.6 °F 1009.0 in SE 13.0 mph 13.0 mph 44 % 0.0 in
17:56 28.7 °F 15.6 °F 1009.0 in ESE 11.1 mph 11.1 mph 45 % 0.0 in
18:01 29.0 °F 15.5 °F 1009.0 in SE 9.3 mph 9.3 mph 44 % 0.0 in
18:06 28.6 °F 15.2 °F 1008.0 in ESE 16.7 mph 16.7 mph 44 % 0.0 in
18:11 28.7 °F 15.6 °F 1008.0 in ENE 11.1 mph 11.1 mph 45 % 0.0 in
18:16 28.7 °F 15.2 °F 1008.0 in ESE 16.7 mph 16.7 mph 44 % 0.0 in
18:21 28.5 °F 15.1 °F 1009.0 in ESE 11.1 mph 11.1 mph 44 % 0.0 in
18:26 28.8 °F 15.7 °F 1009.0 in East 19.8 mph 19.8 mph 45 % 0.0 in
18:31 28.5 °F 15.4 °F 1009.0 in SSE 9.7 mph 9.7 mph 45 % 0.0 in
18:36 28.3 °F 15.2 °F 1008.0 in SSE 14.8 mph 14.8 mph 45 % 0.0 in
18:42 28.4 °F 15.3 °F 1008.0 in ESE 9.3 mph 9.3 mph 45 % 0.0 in
18:47 28.3 °F 15.2 °F 1008.0 in ESE 13.0 mph 13.0 mph 45 % 0.0 in
18:52 28.1 °F 15.4 °F 1009.0 in SE 19.8 mph 19.8 mph 46 % 0.0 in
18:57 28.1 °F 15.4 °F 1009.0 in South 7.4 mph 7.4 mph 46 % 0.0 in
19:02 28.0 °F 15.3 °F 1009.0 in ENE 9.3 mph 9.3 mph 46 % 0.0 in
19:07 27.6 °F 15.3 °F 1009.0 in South 7.4 mph 7.4 mph 47 % 0.0 in
19:12 27.4 °F 15.4 °F 1009.0 in ESE 9.7 mph 9.7 mph 48 % 0.0 in
19:15 23.2 °F 16.0 °F 1010.7 in ENE 1.6 mph 3.2 mph 64 % 0.0 in
19:17 27.3 °F 15.3 °F 1009.0 in SSE 9.7 mph 9.7 mph 48 % 0.0 in
19:22 27.1 °F 15.4 °F 1009.0 in East 9.3 mph 9.3 mph 49 % 0.0 in
19:25 23.1 °F 15.9 °F 1010.7 in Calm   3.2 mph 64 % 0.0 in
19:27 26.9 °F 15.6 °F 1009.0 in SSE 13.0 mph 13.0 mph 50 % 0.0 in
19:32 26.7 °F 15.4 °F 1009.0 in ESE 16.9 mph 16.9 mph 50 % 0.0 in
19:35 23.1 °F 15.9 °F 1010.7 in Calm   3.2 mph 64 % 0.0 in
19:37 26.6 °F 15.6 °F 1009.0 in ESE 9.3 mph 9.3 mph 51 % 0.0 in
19:42 26.3 °F 15.3 °F 1009.0 in SSW 11.1 mph 11.1 mph 51 % 0.0 in
19:45 23.0 °F 15.8 °F 1010.0 in Calm   1.6 mph 64 % 0.0 in
19:48 26.5 °F 15.8 °F 1009.0 in East 9.3 mph 9.3 mph 52 % 0.0 in
19:53 26.4 °F 15.8 °F 1009.0 in East 9.3 mph 9.3 mph 52 % 0.0 in
19:55 22.9 °F 15.9 °F 1010.0 in Calm     65 % 0.0 in
19:56 26.4 °F 15.8 °F 1009.0 in South 7.4 mph 7.4 mph 52 % 0.0 in
20:01 26.2 °F 15.9 °F 1009.0 in SE 16.7 mph 16.7 mph 53 % 0.0 in
20:05 22.8 °F 15.9 °F 1010.0 in Calm   1.6 mph 65 % 0.0 in
20:06 25.9 °F 15.6 °F 1009.0 in SSE 9.5 mph 9.5 mph 53 % 0.0 in
20:11 25.7 °F 15.4 °F 1009.0 in SSE 9.3 mph 9.3 mph 53 % 0.0 in
20:15 22.8 °F 16.1 °F 1010.0 in Calm   1.6 mph 66 % 0.0 in
20:16 25.6 °F 15.6 °F 1009.0 in ESE 9.3 mph 9.3 mph 54 % 0.0 in
20:21 25.5 °F 15.5 °F 1010.0 in SE 9.3 mph 9.3 mph 54 % 0.0 in
20:25 22.8 °F 16.1 °F 1010.0 in North 1.6 mph 1.6 mph 66 % 0.0 in
20:26 25.3 °F 15.3 °F 1010.0 in South 16.7 mph 16.7 mph 54 % 0.0 in
20:32 25.3 °F 15.6 °F 1010.0 in SE 7.4 mph 7.4 mph 55 % 0.0 in
20:35 22.8 °F 16.1 °F 1010.0 in Calm   1.6 mph 66 % 0.0 in
20:37 25.1 °F 15.7 °F 1010.0 in ESE 9.3 mph 9.3 mph 56 % 0.0 in
20:43 25.0 °F 15.9 °F 1010.0 in East 11.1 mph 11.1 mph 57 % 0.0 in
20:45 22.8 °F 16.1 °F 1010.0 in Calm   1.6 mph 66 % 0.0 in
20:48 25.0 °F 15.9 °F 1010.0 in SE 9.3 mph 9.3 mph 57 % 0.0 in
20:53 24.8 °F 16.0 °F 1010.0 in ENE 11.1 mph 11.1 mph 58 % 0.0 in
20:55 22.7 °F 16.0 °F 1010.0 in Calm     66 % 0.0 in
20:58 24.9 °F 16.1 °F 1010.0 in ESE 11.9 mph 11.9 mph 58 % 0.0 in
21:03 24.7 °F 15.9 °F 1010.0 in SE 13.0 mph 13.0 mph 58 % 0.0 in
21:05 22.5 °F 15.8 °F 1010.0 in Calm     66 % 0.0 in
21:08 24.6 °F 15.8 °F 1010.0 in ENE 14.8 mph 14.8 mph 58 % 0.0 in
21:13 24.6 °F 15.8 °F 1010.0 in ENE 11.1 mph 11.1 mph 58 % 0.0 in
21:15 22.4 °F 15.7 °F 1010.0 in Calm     66 % 0.0 in
21:18 24.5 °F 15.9 °F 1010.0 in ENE 9.3 mph 9.3 mph 59 % 0.0 in
21:23 24.4 °F 15.9 °F 1010.0 in ESE 12.2 mph 12.2 mph 59 % 0.0 in
21:25 22.4 °F 15.7 °F 1010.0 in Calm     66 % 0.0 in
21:28 24.2 °F 15.7 °F 1010.0 in SSE 11.1 mph 11.1 mph 59 % 0.0 in
21:33 24.2 °F 15.7 °F 1010.0 in East 7.4 mph 7.4 mph 59 % 0.0 in
21:35 22.2 °F 15.8 °F 1010.0 in Calm   1.6 mph 67 % 0.0 in
21:38 24.1 °F 15.6 °F 1010.0 in ENE 9.3 mph 9.3 mph 59 % 0.0 in
21:43 24.2 °F 15.7 °F 1010.0 in South 7.4 mph 7.4 mph 59 % 0.0 in
21:45 21.9 °F 15.7 °F 1010.0 in SW 1.6 mph 3.2 mph 68 % 0.0 in
21:48 24.1 °F 15.6 °F 1010.0 in ESE 9.3 mph 9.3 mph 59 % 0.0 in
21:53 24.0 °F 15.5 °F 1010.0 in ESE 9.3 mph 9.5 mph 59 % 0.0 in
21:55 21.7 °F 15.6 °F 1010.0 in SW 1.6 mph 3.2 mph 68 % 0.0 in
21:58 24.0 °F 15.5 °F 1010.0 in ESE 7.4 mph 7.4 mph 59 % 0.0 in
22:03 24.0 °F 15.5 °F 1010.0 in ESE 5.6 mph 5.6 mph 59 % 0.0 in
22:05 21.5 °F 15.6 °F 1010.0 in WSW 1.6 mph 3.2 mph 69 % 0.0 in
22:08 24.0 °F 15.5 °F 1010.0 in ESE 3.7 mph 3.7 mph 59 % 0.0 in
22:14 23.9 °F 15.7 °F 1010.0 in SE 9.3 mph 9.3 mph 60 % 0.0 in
22:15 21.5 °F 15.6 °F 1010.0 in Calm   3.2 mph 69 % 0.0 in
22:19 23.9 °F 15.7 °F 1010.0 in SE 5.6 mph 5.6 mph 60 % 0.0 in
22:24 23.8 °F 15.6 °F 1010.0 in WSW 3.7 mph 3.7 mph 60 % 0.0 in
22:25 21.5 °F 15.8 °F 1010.0 in West 1.6 mph 1.6 mph 70 % 0.0 in
22:29 23.8 °F 15.6 °F 1010.0 in SE 5.6 mph 5.6 mph 60 % 0.0 in
22:34 23.8 °F 15.8 °F 1010.0 in SE 3.7 mph 3.7 mph 61 % 0.0 in
22:39 23.7 °F 15.7 °F 1010.7 in East 5.8 mph 5.8 mph 61 % 0.0 in
22:44 23.7 °F 16.0 °F 1010.7 in ESE 5.6 mph 5.6 mph 62 % 0.0 in
22:45 21.5 °F 15.8 °F 1010.0 in ENE 1.6 mph   70 % 0.0 in
22:49 23.7 °F 16.0 °F 1010.7 in SSW 3.7 mph 3.7 mph 62 % 0.0 in
22:55 23.6 °F 15.9 °F 1010.7 in Calm   3.2 mph 62 % 0.0 in
23:00 23.6 °F 15.9 °F 1010.7 in SSE 1.6 mph 4.8 mph 62 % 0.0 in
23:05 23.6 °F 15.9 °F 1010.7 in ENE 5.0 mph   62 % 0.0 in
23:10 23.6 °F 16.2 °F 1010.0 in ESE 5.6 mph 5.6 mph 63 % 0.0 in
23:15 23.5 °F 16.1 °F 1010.0 in SSE 3.9 mph 3.9 mph 63 % 0.0 in
23:20 23.5 °F 16.1 °F 1010.0 in SSW 3.7 mph   63 % 0.0 in
23:25 23.4 °F 15.7 °F 1010.0 in SW 3.7 mph 3.7 mph 62 % 0.0 in
23:30 23.3 °F 15.8 °F 1010.0 in SW 3.7 mph 3.7 mph 63 % 0.0 in
23:35 23.2 °F 15.8 °F 1010.0 in Calm   3.2 mph 63 % 0.0 in
23:40 23.2 °F 15.8 °F 1010.7 in WSW 3.7 mph 3.7 mph 63 % 0.0 in
23:45 23.2 °F 15.8 °F 1010.7 in SE 2.6 mph 2.6 mph 63 % 0.0 in
23:50 23.2 °F 15.8 °F 1010.7 in Calm   1.6 mph 63 % 0.0 in
23:55 23.2 °F 16.0 °F 1010.7 in ENE 3.5 mph 3.5 mph 64 % 0.0 in
Meteo Sesrovires
Elogis d' Weather Underground - 1.5 mb

Guio original per  Jim McMurry - jmcmurry@mwt.net Adaptat per a la plantilla per  Wim van der Kuil - Leuven-Template.eu

Trobareu la nostra informacio del temps tambe a:

Weather Underground

AWEKAS